LGR888 UHMK-UESS

Flight info

Callsign LGR888
Flight time 1h 1m
Altitude 4000
Route DOKIL G7 RANEV
Aircraft C172/L-SFG/C

Departure

Time 2026-04-17 17:04
Airport Keperveem Airport (UHMK)

Arrival

Time 2026-04-17 18:06
Airport Cherskiy Airport (UESS)
Time Latitude Longitude Altitude Speed Heading
2026-04-17 16:53 67.84451 166.14300 531 ft 0 kts 359°
2026-04-17 16:56 67.84453 166.14300 531 ft 1 kts 353°
2026-04-17 16:57 67.84455 166.14299 532 ft 0 kts 348°
2026-04-17 16:57 67.84467 166.14287 532 ft 2 kts 332°
2026-04-17 16:57 67.84482 166.14259 532 ft 2 kts 317°
2026-04-17 16:57 67.84494 166.14221 532 ft 2 kts 305°
2026-04-17 16:58 67.84504 166.14172 532 ft 3 kts 295°
2026-04-17 16:58 67.84512 166.14108 532 ft 4 kts 275°
2026-04-17 16:58 67.84514 166.14024 532 ft 5 kts 282°
2026-04-17 16:58 67.84534 166.13954 532 ft 4 kts 339°
2026-04-17 16:59 67.84565 166.13931 533 ft 4 kts 349°
2026-04-17 16:59 67.84596 166.13921 533 ft 4 kts 353°
2026-04-17 16:59 67.84629 166.13908 534 ft 4 kts 352°
2026-04-17 16:59 67.84660 166.13904 535 ft 4 kts 355°
2026-04-17 17:00 67.84691 166.13899 537 ft 4 kts 357°
2026-04-17 17:00 67.84718 166.13904 538 ft 3 kts 10°
2026-04-17 17:00 67.84744 166.13917 539 ft 3 kts 12°
2026-04-17 17:00 67.84764 166.13922 539 ft 0 kts 346°
2026-04-17 17:01 67.84787 166.13863 540 ft 9 kts 284°
2026-04-17 17:01 67.84757 166.13687 538 ft 12 kts 234°
2026-04-17 17:01 67.84725 166.13263 537 ft 34 kts 261°
2026-04-17 17:01 67.84700 166.12514 537 ft 46 kts 266°
2026-04-17 17:02 67.84700 166.11621 529 ft 49 kts 274°
2026-04-17 17:02 67.84678 166.10924 524 ft 8 kts 199°
2026-04-17 17:02 67.84669 166.10971 524 ft 0 kts 83°
2026-04-17 17:03 67.84671 166.11017 524 ft 13 kts 79°
2026-04-17 17:03 67.84701 166.11716 536 ft 59 kts 86°
2026-04-17 17:03 67.84777 166.12636 782 ft 50 kts 53°
2026-04-17 17:04 67.85079 166.13130 964 ft 54 kts 10°
2026-04-17 17:04 67.85437 166.12860 1163 ft 57 kts 310°
2026-04-17 17:04 67.85577 166.11861 1323 ft 64 kts 276°
2026-04-17 17:04 67.85683 166.10544 1425 ft 79 kts 283°
2026-04-17 17:05 67.85870 166.09045 1518 ft 91 kts 290°
2026-04-17 17:05 67.86133 166.07404 1605 ft 99 kts 294°
2026-04-17 17:05 67.86440 166.05708 1687 ft 104 kts 297°
2026-04-17 17:05 67.86780 166.03958 1778 ft 107 kts 298°
2026-04-17 17:06 67.87131 166.02208 1869 ft 108 kts 299°
2026-04-17 17:06 67.87495 166.00429 1950 ft 109 kts 300°
2026-04-17 17:06 67.87859 165.98657 2022 ft 109 kts 300°
2026-04-17 17:06 67.88230 165.96860 2096 ft 109 kts 300°
2026-04-17 17:07 67.88596 165.95090 2167 ft 109 kts 300°
2026-04-17 17:07 67.88968 165.93289 2252 ft 109 kts 300°
2026-04-17 17:07 67.89334 165.91516 2343 ft 109 kts 300°
2026-04-17 17:07 67.89704 165.89722 2423 ft 110 kts 300°
2026-04-17 17:08 67.90067 165.87959 2494 ft 109 kts 300°
2026-04-17 17:08 67.90434 165.86182 2576 ft 109 kts 301°
2026-04-17 17:08 67.90801 165.84396 2667 ft 109 kts 301°
2026-04-17 17:08 67.91166 165.82620 2747 ft 109 kts 301°
2026-04-17 17:09 67.91530 165.80852 2823 ft 110 kts 301°
2026-04-17 17:09 67.91898 165.79056 2900 ft 110 kts 301°
2026-04-17 17:09 67.92262 165.77284 2979 ft 110 kts 301°
2026-04-17 17:09 67.92617 165.75548 3119 ft 104 kts 301°
2026-04-17 17:10 67.92960 165.73862 3291 ft 97 kts 301°
2026-04-17 17:10 67.93291 165.72232 3381 ft 102 kts 301°
2026-04-17 17:10 67.93636 165.70548 3474 ft 105 kts 301°
2026-04-17 17:10 67.93988 165.68829 3568 ft 107 kts 301°
2026-04-17 17:11 67.94347 165.67079 3653 ft 108 kts 301°
2026-04-17 17:11 67.94710 165.65303 3731 ft 109 kts 301°
2026-04-17 17:11 67.95074 165.63522 3811 ft 110 kts 301°
2026-04-17 17:11 67.95441 165.61717 3894 ft 111 kts 301°
2026-04-17 17:12 67.95811 165.59904 3978 ft 111 kts 302°
2026-04-17 17:12 67.96179 165.58095 4066 ft 112 kts 302°
2026-04-17 17:12 67.96552 165.56258 4155 ft 112 kts 302°
2026-04-17 17:12 67.96920 165.54448 4236 ft 112 kts 302°
2026-04-17 17:13 67.97298 165.52588 4292 ft 115 kts 302°
2026-04-17 17:13 67.97682 165.50699 4298 ft 119 kts 302°
2026-04-17 17:13 67.98084 165.48718 4299 ft 122 kts 302°
2026-04-17 17:13 67.98493 165.46707 4303 ft 123 kts 302°
2026-04-17 17:14 67.98896 165.44714 4298 ft 124 kts 301°
2026-04-17 17:14 67.99305 165.42688 4299 ft 124 kts 302°
2026-04-17 17:14 67.99714 165.40662 4297 ft 124 kts 301°
2026-04-17 17:15 68.00534 165.36589 4291 ft 125 kts 302°
2026-04-17 17:15 68.00940 165.34567 4293 ft 125 kts 301°
2026-04-17 17:15 68.01349 165.32530 4289 ft 124 kts 301°
2026-04-17 17:15 68.01757 165.30496 4297 ft 124 kts 301°
2026-04-17 17:16 68.02166 165.28455 4302 ft 124 kts 301°
2026-04-17 17:16 68.02578 165.26401 4297 ft 124 kts 301°
2026-04-17 17:16 68.02981 165.24387 4305 ft 124 kts 301°
2026-04-17 17:16 68.03393 165.22327 4309 ft 125 kts 301°
2026-04-17 17:17 68.03799 165.20291 4320 ft 125 kts 301°
2026-04-17 17:17 68.04211 165.18225 4316 ft 125 kts 301°
2026-04-17 17:17 68.04622 165.16167 4313 ft 125 kts 301°
2026-04-17 17:17 68.05029 165.14123 4318 ft 125 kts 301°
2026-04-17 17:18 68.05439 165.12058 4320 ft 125 kts 301°
2026-04-17 17:18 68.05843 165.10025 4325 ft 125 kts 301°
2026-04-17 17:18 68.06252 165.07967 4326 ft 125 kts 301°
2026-04-17 17:18 68.06658 165.05914 4334 ft 126 kts 301°
2026-04-17 17:19 68.07070 165.03836 4325 ft 127 kts 301°
2026-04-17 17:19 68.07481 165.01761 4322 ft 125 kts 300°
2026-04-17 17:19 68.07889 164.99690 4327 ft 126 kts 300°
2026-04-17 17:19 68.08291 164.97647 4326 ft 125 kts 300°
2026-04-17 17:20 68.08695 164.95587 4333 ft 124 kts 300°
2026-04-17 17:20 68.09097 164.93527 4325 ft 125 kts 300°
2026-04-17 17:20 68.09502 164.91460 4331 ft 124 kts 300°
2026-04-17 17:20 68.09893 164.89461 4398 ft 121 kts 300°
2026-04-17 17:21 68.10294 164.87419 4340 ft 126 kts 301°
2026-04-17 17:21 68.10699 164.85355 4339 ft 125 kts 301°
2026-04-17 17:21 68.11106 164.83278 4358 ft 124 kts 301°
2026-04-17 17:21 68.11508 164.81229 4366 ft 126 kts 301°
2026-04-17 17:22 68.11916 164.79152 4330 ft 125 kts 300°
2026-04-17 17:22 68.12313 164.77113 4354 ft 123 kts 300°
2026-04-17 17:22 68.12712 164.75073 4379 ft 124 kts 300°
2026-04-17 17:22 68.13116 164.73006 4358 ft 123 kts 300°
2026-04-17 17:23 68.13511 164.70976 4364 ft 123 kts 300°
2026-04-17 17:23 68.13907 164.68944 4346 ft 122 kts 300°
2026-04-17 17:23 68.14300 164.66921 4356 ft 122 kts 300°
2026-04-17 17:23 68.14694 164.64896 4355 ft 123 kts 301°
2026-04-17 17:24 68.15095 164.62845 4342 ft 123 kts 301°
2026-04-17 17:24 68.15491 164.60814 4342 ft 123 kts 301°
2026-04-17 17:24 68.15890 164.58766 4340 ft 124 kts 301°
2026-04-17 17:24 68.16290 164.56715 4329 ft 125 kts 301°
2026-04-17 17:25 68.16693 164.54643 4301 ft 125 kts 301°
2026-04-17 17:25 68.17092 164.52589 4290 ft 123 kts 301°
2026-04-17 17:25 68.17486 164.50558 4289 ft 122 kts 300°
2026-04-17 17:25 68.17876 164.48549 4288 ft 122 kts 300°
2026-04-17 17:26 68.18271 164.46509 4282 ft 122 kts 300°
2026-04-17 17:26 68.18659 164.44498 4285 ft 121 kts 300°
2026-04-17 17:26 68.19049 164.42476 4289 ft 121 kts 300°
2026-04-17 17:26 68.19432 164.40488 4298 ft 121 kts 300°
2026-04-17 17:27 68.19820 164.38472 4302 ft 120 kts 300°
2026-04-17 17:27 68.20203 164.36482 4311 ft 121 kts 301°
2026-04-17 17:27 68.20593 164.34460 4308 ft 121 kts 300°
2026-04-17 17:27 68.20982 164.32442 4317 ft 122 kts 300°
2026-04-17 17:28 68.21374 164.30400 4325 ft 122 kts 300°
2026-04-17 17:28 68.21767 164.28348 4319 ft 123 kts 300°
2026-04-17 17:28 68.22160 164.26294 4315 ft 123 kts 299°
2026-04-17 17:28 68.22548 164.24260 4321 ft 121 kts 299°
2026-04-17 17:29 68.22937 164.22214 4322 ft 122 kts 299°
2026-04-17 17:29 68.23319 164.20200 4335 ft 122 kts 299°
2026-04-17 17:29 68.23711 164.18138 4340 ft 122 kts 299°
2026-04-17 17:29 68.24100 164.16090 4346 ft 124 kts 299°
2026-04-17 17:30 68.24491 164.14027 4347 ft 124 kts 299°
2026-04-17 17:30 68.24891 164.11920 4346 ft 125 kts 300°
2026-04-17 17:30 68.25288 164.09827 4350 ft 126 kts 300°
2026-04-17 17:30 68.25690 164.07704 4348 ft 127 kts 300°
2026-04-17 17:31 68.26091 164.05582 4330 ft 126 kts 300°
2026-04-17 17:31 68.26489 164.03473 4325 ft 125 kts 300°
2026-04-17 17:31 68.26880 164.01404 4324 ft 122 kts 299°
2026-04-17 17:31 68.27261 163.99379 4348 ft 122 kts 299°
2026-04-17 17:32 68.27646 163.97328 4327 ft 122 kts 299°
2026-04-17 17:32 68.28026 163.95297 4328 ft 120 kts 299°
2026-04-17 17:32 68.28395 163.93324 4337 ft 117 kts 299°
2026-04-17 17:32 68.28762 163.91356 4350 ft 117 kts 299°
2026-04-17 17:33 68.29130 163.89394 4376 ft 117 kts 299°
2026-04-17 17:33 68.29503 163.87401 4382 ft 120 kts 300°
2026-04-17 17:33 68.29884 163.85364 4375 ft 122 kts 300°
2026-04-17 17:33 68.30269 163.83310 4374 ft 122 kts 300°
2026-04-17 17:34 68.30652 163.81261 4364 ft 122 kts 300°
2026-04-17 17:34 68.31037 163.79198 4376 ft 122 kts 300°
2026-04-17 17:34 68.31422 163.77132 4371 ft 122 kts 300°
2026-04-17 17:34 68.31806 163.75070 4368 ft 122 kts 300°
2026-04-17 17:35 68.32185 163.73033 4366 ft 122 kts 300°
2026-04-17 17:35 68.32571 163.70960 4356 ft 121 kts 299°
2026-04-17 17:35 68.32946 163.68941 4359 ft 122 kts 300°
2026-04-17 17:35 68.33326 163.66888 4350 ft 121 kts 299°
2026-04-17 17:36 68.33704 163.64844 4355 ft 121 kts 299°
2026-04-17 17:36 68.34084 163.62788 4354 ft 123 kts 299°
2026-04-17 17:36 68.34470 163.60700 4345 ft 123 kts 300°
2026-04-17 17:36 68.34851 163.58638 4342 ft 123 kts 300°
2026-04-17 17:37 68.35236 163.56551 4347 ft 123 kts 300°
2026-04-17 17:37 68.35617 163.54485 4342 ft 123 kts 299°
2026-04-17 17:37 68.35995 163.52435 4347 ft 123 kts 300°
2026-04-17 17:37 68.36378 163.50352 4365 ft 124 kts 300°
2026-04-17 17:38 68.36767 163.48238 4303 ft 123 kts 299°
2026-04-17 17:38 68.37143 163.46187 4317 ft 121 kts 299°
2026-04-17 17:38 68.37518 163.44138 4315 ft 120 kts 299°
2026-04-17 17:38 68.37891 163.42102 4313 ft 120 kts 299°
2026-04-17 17:39 68.38260 163.40082 4307 ft 120 kts 299°
2026-04-17 17:39 68.38627 163.38066 4310 ft 119 kts 299°
2026-04-17 17:39 68.38995 163.36047 4313 ft 119 kts 299°
2026-04-17 17:39 68.39365 163.34021 4316 ft 120 kts 298°
2026-04-17 17:40 68.39737 163.31979 4311 ft 120 kts 298°
2026-04-17 17:40 68.40113 163.29913 4319 ft 120 kts 298°
2026-04-17 17:40 68.40487 163.27859 4314 ft 122 kts 299°
2026-04-17 17:40 68.40858 163.25819 4308 ft 121 kts 298°
2026-04-17 17:41 68.41233 163.23753 4304 ft 120 kts 298°
2026-04-17 17:41 68.41605 163.21706 4320 ft 120 kts 298°
2026-04-17 17:41 68.41977 163.19649 4319 ft 122 kts 299°
2026-04-17 17:41 68.42351 163.17583 4291 ft 121 kts 298°
2026-04-17 17:42 68.42717 163.15561 4308 ft 119 kts 298°
2026-04-17 17:42 68.43086 163.13513 4308 ft 120 kts 298°
2026-04-17 17:42 68.43455 163.11469 4304 ft 120 kts 298°
2026-04-17 17:42 68.43823 163.09425 4297 ft 120 kts 298°
2026-04-17 17:43 68.44193 163.07370 4298 ft 121 kts 298°
2026-04-17 17:43 68.44561 163.05325 4293 ft 120 kts 298°
2026-04-17 17:43 68.44926 163.03290 4298 ft 119 kts 298°
2026-04-17 17:43 68.45291 163.01259 4302 ft 120 kts 298°
2026-04-17 17:44 68.45663 162.99188 4292 ft 121 kts 298°
2026-04-17 17:44 68.46037 162.97101 4290 ft 121 kts 299°
2026-04-17 17:44 68.46401 162.95062 4280 ft 121 kts 299°
2026-04-17 17:44 68.46771 162.92998 4273 ft 120 kts 298°
2026-04-17 17:45 68.47137 162.90944 4276 ft 120 kts 298°
2026-04-17 17:45 68.47503 162.88896 4271 ft 120 kts 298°
2026-04-17 17:45 68.47864 162.86873 4275 ft 120 kts 298°
2026-04-17 17:45 68.48228 162.84827 4273 ft 119 kts 298°
2026-04-17 17:46 68.48593 162.82771 4279 ft 120 kts 298°
2026-04-17 17:46 68.48960 162.80708 4270 ft 121 kts 298°
2026-04-17 17:46 68.49328 162.78636 4262 ft 121 kts 298°
2026-04-17 17:46 68.49695 162.76573 4262 ft 120 kts 298°
2026-04-17 17:47 68.50062 162.74498 4266 ft 120 kts 298°
2026-04-17 17:47 68.50423 162.72456 4275 ft 121 kts 298°
2026-04-17 17:47 68.50795 162.70358 4281 ft 122 kts 298°
2026-04-17 17:47 68.51165 162.68265 4278 ft 122 kts 298°
2026-04-17 17:48 68.51540 162.66136 4288 ft 123 kts 298°
2026-04-17 17:48 68.51913 162.64026 4256 ft 123 kts 298°
2026-04-17 17:48 68.52282 162.61928 4260 ft 121 kts 298°
2026-04-17 17:48 68.52647 162.59853 4284 ft 121 kts 298°
2026-04-17 17:49 68.53012 162.57776 4279 ft 121 kts 298°
2026-04-17 17:49 68.53385 162.55655 4291 ft 122 kts 298°
2026-04-17 17:49 68.53757 162.53554 4278 ft 122 kts 298°
2026-04-17 17:49 68.54127 162.51459 4275 ft 121 kts 298°
2026-04-17 17:50 68.54493 162.49388 4283 ft 120 kts 298°
2026-04-17 17:50 68.54858 162.47310 4300 ft 121 kts 298°
2026-04-17 17:50 68.55222 162.45230 4295 ft 122 kts 298°
2026-04-17 17:50 68.55589 162.43137 4297 ft 121 kts 298°
2026-04-17 17:51 68.55956 162.41026 4297 ft 121 kts 298°
2026-04-17 17:51 68.56319 162.38945 4300 ft 121 kts 298°
2026-04-17 17:51 68.56677 162.36879 4295 ft 117 kts 298°
2026-04-17 17:51 68.57024 162.34882 4299 ft 115 kts 297°
2026-04-17 17:52 68.57372 162.32886 4244 ft 115 kts 298°
2026-04-17 17:52 68.57729 162.30837 4141 ft 118 kts 297°
2026-04-17 17:52 68.58086 162.28781 4060 ft 117 kts 297°
2026-04-17 17:52 68.58432 162.26775 4012 ft 116 kts 297°
2026-04-17 17:53 68.58781 162.24759 3951 ft 116 kts 297°
2026-04-17 17:53 68.59130 162.22737 3891 ft 115 kts 297°
2026-04-17 17:53 68.59473 162.20750 3841 ft 115 kts 297°
2026-04-17 17:53 68.59817 162.18751 3799 ft 114 kts 296°
2026-04-17 17:54 68.60159 162.16771 3747 ft 114 kts 297°
2026-04-17 17:54 68.60503 162.14772 3677 ft 116 kts 297°
2026-04-17 17:54 68.60851 162.12752 3602 ft 117 kts 297°
2026-04-17 17:54 68.61203 162.10706 3520 ft 117 kts 297°
2026-04-17 17:55 68.61562 162.08682 3435 ft 118 kts 296°
2026-04-17 17:55 68.61906 162.06651 3361 ft 118 kts 296°
2026-04-17 17:55 68.62258 162.04572 3280 ft 118 kts 296°
2026-04-17 17:55 68.62608 162.02525 3197 ft 117 kts 296°
2026-04-17 17:56 68.62953 162.00496 3115 ft 116 kts 296°
2026-04-17 17:56 68.63294 161.98492 3028 ft 115 kts 296°
2026-04-17 17:56 68.63631 161.96516 2941 ft 115 kts 296°
2026-04-17 17:56 68.63974 161.94502 2851 ft 114 kts 296°
2026-04-17 17:57 68.64308 161.92539 2758 ft 113 kts 296°
2026-04-17 17:57 68.64640 161.90588 2671 ft 112 kts 296°
2026-04-17 17:57 68.64970 161.88652 2584 ft 111 kts 296°
2026-04-17 17:57 68.65301 161.86696 2497 ft 111 kts 296°
2026-04-17 17:58 68.65630 161.84758 2412 ft 111 kts 296°
2026-04-17 17:58 68.65962 161.82797 2330 ft 111 kts 296°
2026-04-17 17:58 68.66291 161.80846 2254 ft 112 kts 296°
2026-04-17 17:58 68.66626 161.78871 2167 ft 111 kts 296°
2026-04-17 17:59 68.66949 161.76961 2080 ft 110 kts 296°
2026-04-17 17:59 68.67245 161.75014 1993 ft 109 kts 288°
2026-04-17 17:59 68.67479 161.73033 1904 ft 107 kts 288°
2026-04-17 17:59 68.67707 161.71094 1816 ft 105 kts 288°
2026-04-17 18:00 68.67933 161.69179 1726 ft 104 kts 288°
2026-04-17 18:00 68.68150 161.67284 1634 ft 102 kts 287°
2026-04-17 18:00 68.68342 161.65379 1553 ft 100 kts 285°
2026-04-17 18:00 68.68481 161.63531 1539 ft 94 kts 281°
2026-04-17 18:01 68.68579 161.61769 1539 ft 91 kts 278°
2026-04-17 18:01 68.68671 161.60065 1540 ft 89 kts 281°
2026-04-17 18:01 68.68833 161.58411 1538 ft 88 kts 290°
2026-04-17 18:01 68.69064 161.56847 1549 ft 85 kts 294°
2026-04-17 18:02 68.69301 161.55341 1539 ft 84 kts 295°
2026-04-17 18:02 68.69554 161.53914 1533 ft 82 kts 297°
2026-04-17 18:02 68.69827 161.52464 1474 ft 86 kts 301°
2026-04-17 18:02 68.70150 161.51027 1417 ft 88 kts 304°
2026-04-17 18:03 68.70526 161.49661 1351 ft 89 kts 310°
2026-04-17 18:03 68.70925 161.48311 1230 ft 90 kts 306°
2026-04-17 18:03 68.71268 161.46941 1184 ft 82 kts 304°
2026-04-17 18:03 68.71610 161.45583 1061 ft 86 kts 307°
2026-04-17 18:04 68.71937 161.44206 991 ft 83 kts 297°
2026-04-17 18:04 68.72198 161.42824 960 ft 77 kts 297°
2026-04-17 18:04 68.72448 161.41547 909 ft 73 kts 299°
2026-04-17 18:04 68.72713 161.40318 811 ft 75 kts 300°
2026-04-17 18:05 68.72970 161.39076 688 ft 70 kts 301°
2026-04-17 18:05 68.73229 161.37906 451 ft 71 kts 305°
2026-04-17 18:05 68.73500 161.36732 197 ft 70 kts 304°
2026-04-17 18:05 68.73749 161.35645 49 ft 63 kts 302°
2026-04-17 18:06 68.73953 161.34732 21 ft 44 kts 300°
2026-04-17 18:06 68.74085 161.34129 24 ft 29 kts 302°
2026-04-17 18:06 68.74174 161.33722 21 ft 16 kts 308°
2026-04-17 18:06 68.74213 161.33543 21 ft 9 kts 296°
2026-04-17 18:07 68.74240 161.33411 20 ft 6 kts 298°
2026-04-17 18:07 68.74263 161.33321 19 ft 4 kts 319°
2026-04-17 18:07 68.74285 161.33301 20 ft 3 kts 16°
2026-04-17 18:07 68.74300 161.33347 22 ft 3 kts 71°
2026-04-17 18:08 68.74304 161.33398 23 ft 3 kts 49°
2026-04-17 18:08 68.74310 161.33412 24 ft 0 kts 33°